Andover, SD (57422)

10:24 PM CST on February 06, 2016 (GMT -0600)
APRSWXNET | | Change Station
CLOSE
Current Station
Personal Weather Station
Location: Groton, SD
Elevation: 1315 ft
Nearby Weather Stations
Active Advisory: Blizzard Warning

Elev 1315 ft 45.44 °N, 98.09 °W | Updated 17 minutes ago

Partly Cloudy
Partly Cloudy
33 °F
Feels Like 33 °F
N
2
Wind Variable Wind from West
Gusts 5.0 mph

Today
High -- | Low -- °F
--% Chance of Precip.
Yesterday
High -- | Low -- °F
Precip. -- in
Pressure 29.76 in
Visibility 10.0 miles
Clouds Clear
Windchill 33 °F
Dew Point 30 °F
Humidity 87%
Rainfall in
Snow Depth Not available.
7:46 AM 5:45 PM
Waning Crescent, 3% visible
METAR KABR 070353Z AUTO 27013KT 10SM CLR 06/M04 A2973 RMK AO2 SLP078 T00561039
Pressure 29.76 in
Visibility 10.0 miles
Clouds Clear
Windchill 33 °F
Dew Point 30 °F
Humidity 87%
Rainfall in
Snow Depth Not available.
7:46 AM 5:45 PM
Waning Crescent, 3% visible
METAR KABR 070353Z AUTO 27013KT 10SM CLR 06/M04 A2973 RMK AO2 SLP078 T00561039

10-Day Weather Forecast

Almanac

Astronomy

Feb. 06, 2016 Rise Set
Actual Time
Civil Twilight
Nautical Twilight
Astronomical Twilight
Moon
Length of Visible Light
Length of Day
Tomorrow will be .
, % of the Moon is Illuminated

Today's Extremes

State Highs State Lows

Community

WunderPhotos

Upload Photos

1,891,156 photos uploaded!

WunderBlog® & News

Nearby

Air Quality

  Air Quality AQ Index Pollutant
Not available.

Snow Depth

Station Depth Elevation

Earthquake Activity

City Distance Mag. Time & Date
Minimum magnitude displayed is 2.5.

Coastal Water Temperatures

Place Temperature

Stations

Nearby Weather Stations

Station Location Temp. Windchill Dew Point Humidity Wind Precip. Elev Updated Type
                   

Watches & Warnings

Blizzard Warning
Issued: 3:05 PM CST Feb. 6, 2016 – National Weather Service

... Blizzard Warning in effect from 9 am Sunday to 6 am CST
Monday...

The National Weather Service in Aberdeen has issued a Blizzard
Warning... which is in effect from 9 am Sunday to 6 am CST Monday.
The blizzard watch is no longer in effect.

* Expect blizzard conditions to develop around 9 am Sunday and
then diminish around 6 am Monday.

* Winds gusting as high as 60 mph will cause whiteout conditions
in blowing snow. Significant drifting of the snow is likely.
Damage to trees and power lines is possible

* total snow accumulations of up to 2 inches are expected.

* Travel may be very difficult to impossible.

Precautionary/preparedness actions...

A Blizzard Warning means severe winter weather conditions are
expected or occurring. Falling and blowing snow with strong winds
and poor visibilities are likely. This will lead to whiteout
conditions... making travel extremely dangerous. Do not travel. If
you must travel... have a winter survival kit with you. If you get
stranded... stay with your vehicle. The latest Road conditions for
the state you are calling from can be obtained by calling 5 1 1.